Time;durP1;ratioP1;P1;durP2;ratioP2;P2;SDS_P1;SDS_P2;PMS_P1;PMS_P2;Temp;Humidity;BMP_temperature;BMP_pressure;BME280_temperature;BME280_humidity;BME280_pressure;Samples;Min_cycle;Max_cycle;Signal;HPM_P1;HPM_P2
2023/06/11 00:02:07;;;;;;;21.88;14.63;;;;;;;;;;5065513;28;20043;-79
2023/06/11 00:04:34;;;;;;;26.00;14.80;;;;;;;;;;5069233;28;20045;-80
2023/06/11 00:07:01;;;;;;;23.83;14.07;;;;;;;;;;5067467;28;20016;-79
2023/06/11 00:09:28;;;;;;;22.40;13.65;;;;;;;;;;5051193;28;20440;-78
2023/06/11 00:11:54;;;;;;;22.63;14.15;;;;;;;;;;5077351;28;20020;-79
2023/06/11 00:14:21;;;;;;;23.95;14.57;;;;;;;;;;5070931;28;20672;-80
2023/06/11 00:16:48;;;;;;;31.77;17.88;;;;;;;;;;5073018;28;20066;-79
2023/06/11 00:19:14;;;;;;;34.08;19.67;;;;;;;;;;5060887;28;20032;-80
2023/06/11 00:21:44;;;;;;;28.85;20.25;;;;;;;;;;5072641;28;20169;-80
2023/06/11 00:24:12;;;;;;;37.45;20.05;;;;;;;;;;5049894;28;20040;-79
2023/06/11 00:26:38;;;;;;;30.48;20.98;;;;;;;;;;5063847;28;20089;-79
2023/06/11 00:29:05;;;;;;;31.00;19.88;;;;;;;;;;5051285;28;20090;-80
2023/06/11 00:31:31;;;;;;;32.58;21.63;;;;;;;;;;5064729;28;20433;-78
2023/06/11 00:33:57;;;;;;;36.40;21.42;;;;;;;;;;5043325;28;20025;-79
2023/06/11 00:36:26;;;;;;;32.13;21.10;;;;;;;;;;5048692;28;20104;-79
2023/06/11 00:38:53;;;;;;;33.08;21.17;;;;;;;;;;5049121;28;20033;-79
2023/06/11 00:41:20;;;;;;;32.92;20.95;;;;;;;;;;5046999;28;20052;-79
2023/06/11 00:43:48;;;;;;;33.83;22.33;;;;;;;;;;5047536;28;20029;-79
2023/06/11 00:46:16;;;;;;;30.42;20.40;;;;;;;;;;5041297;28;20025;-78
2023/06/11 00:48:42;;;;;;;27.63;19.02;;;;;;;;;;5050334;28;20072;-77
2023/06/11 00:51:10;;;;;;;34.38;20.20;;;;;;;;;;5047707;28;20469;-78
2023/06/11 00:53:36;;;;;;;37.80;23.20;;;;;;;;;;5049939;28;20028;-79
2023/06/11 00:56:03;;;;;;;34.55;23.58;;;;;;;;;;5046900;28;20374;-79
2023/06/11 00:58:29;;;;;;;42.00;24.35;;;;;;;;;;5042288;28;20029;-78
2023/06/11 01:00:57;;;;;;;38.40;25.13;;;;;;;;;;5048956;28;20026;-79
2023/06/11 01:03:26;;;;;;;41.05;25.27;;;;;;;;;;5058970;28;20079;-80
2023/06/11 01:06:01;;;;;;;34.67;23.60;;;;;;;;;;5047766;28;20017;-78
2023/06/11 01:08:28;;;;;;;43.05;27.33;;;;;;;;;;5061469;28;20067;-78
2023/06/11 01:10:59;;;;;;;44.45;25.92;;;;;;;;;;5054565;28;20462;-78
2023/06/11 01:13:26;;;;;;;44.33;26.77;;;;;;;;;;5052937;28;20453;-79
2023/06/11 01:15:56;;;;;;;41.65;25.50;;;;;;;;;;5064176;28;20022;-79
2023/06/11 01:18:23;;;;;;;44.40;26.95;;;;;;;;;;5042665;28;20541;-79
2023/06/11 01:20:59;;;;;;;42.50;25.75;;;;;;;;;;5061986;28;20545;-79
2023/06/11 01:23:35;;;;;;;40.88;26.15;;;;;;;;;;5046823;28;20029;-79
2023/06/11 01:26:07;;;;;;;41.40;26.50;;;;;;;;;;5043537;28;20021;-78
2023/06/11 01:28:35;;;;;;;45.58;28.05;;;;;;;;;;5050917;28;20496;-79
2023/06/11 01:31:06;;;;;;;40.22;26.40;;;;;;;;;;5061067;28;20127;-78
2023/06/11 01:33:35;;;;;;;39.88;25.52;;;;;;;;;;5045204;28;20037;-79
2023/06/11 01:36:01;;;;;;;37.58;24.02;;;;;;;;;;5044329;28;20040;-79
2023/06/11 01:38:34;;;;;;;43.45;26.55;;;;;;;;;;5047117;28;20020;-79
2023/06/11 01:41:01;;;;;;;41.05;27.80;;;;;;;;;;5058217;28;20029;-79
2023/06/11 01:43:28;;;;;;;43.60;26.95;;;;;;;;;;5054306;28;20060;-77
2023/06/11 01:45:55;;;;;;;42.00;27.10;;;;;;;;;;5042181;28;20520;-78
2023/06/11 01:48:21;;;;;;;42.47;28.40;;;;;;;;;;5047441;28;20021;-77
2023/06/11 01:50:47;;;;;;;47.17;27.17;;;;;;;;;;5048695;28;20072;-77
2023/06/11 01:53:16;;;;;;;39.80;26.88;;;;;;;;;;5046731;28;20613;-78
2023/06/11 01:55:42;;;;;;;43.53;26.55;;;;;;;;;;5059734;28;20062;-77
2023/06/11 01:58:09;;;;;;;40.85;27.58;;;;;;;;;;5053378;28;20021;-78
2023/06/11 02:00:35;;;;;;;39.65;26.90;;;;;;;;;;5061058;28;20052;-78
2023/06/11 02:03:05;;;;;;;45.50;27.15;;;;;;;;;;5047381;28;20116;-78
2023/06/11 02:05:31;;;;;;;42.35;27.85;;;;;;;;;;5066524;28;20063;-77
2023/06/11 02:07:57;;;;;;;44.80;27.35;;;;;;;;;;5057934;28;20119;-78
2023/06/11 02:10:23;;;;;;;41.53;26.70;;;;;;;;;;5052351;28;20468;-78
2023/06/11 02:12:50;;;;;;;43.65;27.50;;;;;;;;;;5055037;28;20107;-77
2023/06/11 02:15:16;;;;;;;40.28;27.55;;;;;;;;;;5050065;28;20041;-77
2023/06/11 02:17:42;;;;;;;47.53;27.30;;;;;;;;;;5061032;28;20037;-77
2023/06/11 02:20:08;;;;;;;45.55;26.23;;;;;;;;;;5057797;28;20042;-78
2023/06/11 02:22:34;;;;;;;43.67;28.02;;;;;;;;;;5053020;28;21215;-79
2023/06/11 02:25:01;;;;;;;39.67;24.95;;;;;;;;;;5053209;28;20025;-77
2023/06/11 02:27:27;;;;;;;47.40;27.63;;;;;;;;;;5064111;28;20080;-81
2023/06/11 02:29:55;;;;;;;49.05;28.90;;;;;;;;;;5049681;28;20017;-77
2023/06/11 02:32:21;;;;;;;52.88;29.00;;;;;;;;;;5051360;28;20119;-78
2023/06/11 02:34:48;;;;;;;49.13;28.67;;;;;;;;;;5052689;28;20060;-78
2023/06/11 02:37:14;;;;;;;50.63;27.98;;;;;;;;;;5050578;28;20021;-78
2023/06/11 02:39:40;;;;;;;51.33;28.85;;;;;;;;;;5049044;28;20698;-78
2023/06/11 02:42:06;;;;;;;47.22;27.63;;;;;;;;;;5056713;28;20107;-78
2023/06/11 02:44:33;;;;;;;45.88;27.73;;;;;;;;;;5058089;28;20095;-78
2023/06/11 02:46:59;;;;;;;47.65;28.45;;;;;;;;;;5059455;28;20071;-79
2023/06/11 02:49:25;;;;;;;42.85;27.38;;;;;;;;;;5051049;28;20375;-79
2023/06/11 02:51:51;;;;;;;45.75;27.02;;;;;;;;;;5051864;28;20488;-79
2023/06/11 02:54:18;;;;;;;46.28;28.27;;;;;;;;;;5050672;28;20219;-79
2023/06/11 02:56:45;;;;;;;49.42;28.55;;;;;;;;;;5041771;28;20030;-80
2023/06/11 02:59:11;;;;;;;50.05;29.65;;;;;;;;;;5056424;28;20051;-79
2023/06/11 03:01:38;;;;;;;47.95;29.05;;;;;;;;;;5046710;28;20057;-79
2023/06/11 03:04:05;;;;;;;46.55;29.13;;;;;;;;;;5048207;28;20032;-79
2023/06/11 03:06:32;;;;;;;46.70;28.25;;;;;;;;;;5053846;28;20022;-79
2023/06/11 03:08:58;;;;;;;43.05;26.70;;;;;;;;;;5047651;28;20025;-79
2023/06/11 03:11:25;;;;;;;45.38;26.88;;;;;;;;;;5036435;28;20055;-79
2023/06/11 03:13:51;;;;;;;49.22;29.02;;;;;;;;;;5054870;28;20380;-79
2023/06/11 03:16:17;;;;;;;42.85;27.75;;;;;;;;;;5050538;28;20033;-81
2023/06/11 03:18:44;;;;;;;46.92;27.77;;;;;;;;;;5047378;28;20059;-79
2023/06/11 03:21:10;;;;;;;47.25;28.15;;;;;;;;;;5048235;28;20029;-80
2023/06/11 03:23:36;;;;;;;47.63;28.65;;;;;;;;;;5066108;28;20186;-79
2023/06/11 03:26:02;;;;;;;44.63;26.58;;;;;;;;;;5052275;28;20017;-79
2023/06/11 03:28:28;;;;;;;54.22;29.33;;;;;;;;;;5055874;28;20045;-80
2023/06/11 03:30:54;;;;;;;46.83;30.40;;;;;;;;;;5052858;28;20087;-79
2023/06/11 03:33:21;;;;;;;45.97;27.38;;;;;;;;;;5059038;28;20035;-79
2023/06/11 03:35:47;;;;;;;47.55;27.38;;;;;;;;;;5068658;28;20029;-78
2023/06/11 03:38:13;;;;;;;50.67;27.83;;;;;;;;;;5056315;28;20388;-79
2023/06/11 03:40:39;;;;;;;44.13;27.75;;;;;;;;;;5051505;28;20028;-79
2023/06/11 03:43:05;;;;;;;49.58;29.15;;;;;;;;;;5052546;28;20032;-79
2023/06/11 03:45:31;;;;;;;46.70;29.52;;;;;;;;;;5060209;28;20032;-78
2023/06/11 03:48:02;;;;;;;44.47;28.60;;;;;;;;;;5042634;28;20029;-78
2023/06/11 03:50:28;;;;;;;48.33;29.27;;;;;;;;;;5069459;28;20019;-80
2023/06/11 03:52:54;;;;;;;48.80;28.10;;;;;;;;;;5071020;28;20081;-79
2023/06/11 03:55:20;;;;;;;52.83;30.20;;;;;;;;;;5050442;28;20029;-79
2023/06/11 03:57:46;;;;;;;48.00;29.30;;;;;;;;;;5052658;28;20552;-80
2023/06/11 04:00:13;;;;;;;47.05;30.02;;;;;;;;;;5070483;28;20087;-79
2023/06/11 04:02:39;;;;;;;50.38;28.83;;;;;;;;;;5051078;28;20559;-80
2023/06/11 04:05:05;;;;;;;47.67;28.30;;;;;;;;;;5066812;28;20071;-79
2023/06/11 04:07:31;;;;;;;51.03;28.13;;;;;;;;;;5067877;28;20036;-80
2023/06/11 04:09:57;;;;;;;46.38;26.98;;;;;;;;;;5048240;28;20025;-80
2023/06/11 04:12:25;;;;;;;52.25;28.83;;;;;;;;;;5066406;28;20440;-79
2023/06/11 04:14:51;;;;;;;45.55;27.95;;;;;;;;;;5070746;28;20599;-79
2023/06/11 04:17:18;;;;;;;47.15;28.60;;;;;;;;;;5063650;28;20028;-79
2023/06/11 04:19:44;;;;;;;51.03;29.63;;;;;;;;;;5063985;28;20024;-79
2023/06/11 04:22:10;;;;;;;47.50;29.02;;;;;;;;;;5065833;28;20043;-80
2023/06/11 04:24:36;;;;;;;47.17;27.08;;;;;;;;;;5070014;28;20111;-79
2023/06/11 04:27:02;;;;;;;43.38;27.88;;;;;;;;;;5050664;28;20021;-79
2023/06/11 04:29:29;;;;;;;52.38;30.52;;;;;;;;;;5070402;28;20103;-81
2023/06/11 04:31:56;;;;;;;46.55;27.83;;;;;;;;;;5063343;28;20453;-79
2023/06/11 04:34:29;;;;;;;46.00;28.60;;;;;;;;;;5049325;28;20459;-79
2023/06/11 04:36:55;;;;;;;50.15;29.02;;;;;;;;;;5046801;28;20139;-80
2023/06/11 04:39:22;;;;;;;46.20;28.27;;;;;;;;;;5062811;28;20040;-80
2023/06/11 04:41:48;;;;;;;52.78;28.60;;;;;;;;;;5052892;28;20021;-80
2023/06/11 04:44:16;;;;;;;50.45;29.08;;;;;;;;;;5077823;28;20039;-79
2023/06/11 04:46:43;;;;;;;47.78;27.02;;;;;;;;;;5069052;28;20044;-79
2023/06/11 04:49:09;;;;;;;49.13;29.55;;;;;;;;;;5073731;28;20031;-79
2023/06/11 04:51:40;;;;;;;51.38;28.20;;;;;;;;;;5076858;28;20384;-79
2023/06/11 04:54:07;;;;;;;48.38;28.63;;;;;;;;;;5059229;28;20055;-81
2023/06/11 04:56:33;;;;;;;49.90;28.50;;;;;;;;;;5063373;28;20048;-79
2023/06/11 04:59:01;;;;;;;50.38;29.55;;;;;;;;;;5060182;28;20032;-80
2023/06/11 05:01:30;;;;;;;48.05;29.45;;;;;;;;;;5067761;28;20028;-79
2023/06/11 05:03:56;;;;;;;45.17;29.05;;;;;;;;;;5065551;28;20036;-79
2023/06/11 05:06:23;;;;;;;51.70;28.88;;;;;;;;;;5066581;28;20025;-79
2023/06/11 05:08:53;;;;;;;48.03;30.02;;;;;;;;;;5068313;28;20126;-79
2023/06/11 05:11:19;;;;;;;49.25;30.02;;;;;;;;;;5069145;28;20025;-79
2023/06/11 05:13:45;;;;;;;46.30;28.17;;;;;;;;;;5067224;28;20029;-80
2023/06/11 05:16:12;;;;;;;43.00;26.98;;;;;;;;;;5070317;28;20032;-79
2023/06/11 05:18:38;;;;;;;53.30;30.30;;;;;;;;;;5072244;28;20082;-78
2023/06/11 05:21:05;;;;;;;51.22;29.42;;;;;;;;;;5068771;28;20036;-80
2023/06/11 05:23:33;;;;;;;47.38;28.75;;;;;;;;;;5066638;28;20489;-79
2023/06/11 05:26:01;;;;;;;44.97;29.13;;;;;;;;;;5069673;28;20016;-80
2023/06/11 05:28:29;;;;;;;51.70;30.17;;;;;;;;;;5065437;28;20024;-79
2023/06/11 05:30:56;;;;;;;56.42;30.70;;;;;;;;;;5066479;28;20025;-79
2023/06/11 05:33:23;;;;;;;51.80;29.50;;;;;;;;;;5036844;28;20473;-79
2023/06/11 05:35:51;;;;;;;45.83;30.55;;;;;;;;;;5065176;28;20017;-78
2023/06/11 05:38:19;;;;;;;55.95;30.13;;;;;;;;;;5065236;28;20043;-84
2023/06/11 05:40:46;;;;;;;46.72;29.13;;;;;;;;;;5045669;28;20139;-81
2023/06/11 05:43:12;;;;;;;48.00;28.83;;;;;;;;;;5065529;28;20548;-80
2023/06/11 05:45:46;;;;;;;51.85;30.95;;;;;;;;;;5064505;28;20033;-82
2023/06/11 05:48:12;;;;;;;49.07;29.60;;;;;;;;;;5051789;28;20048;-79
2023/06/11 05:50:39;;;;;;;50.80;27.67;;;;;;;;;;5071835;28;20063;-83
2023/06/11 05:53:05;;;;;;;51.65;29.20;;;;;;;;;;5069836;28;20477;-83
2023/06/11 05:55:31;;;;;;;54.90;29.52;;;;;;;;;;5050262;28;20032;-81
2023/06/11 05:57:57;;;;;;;55.58;30.67;;;;;;;;;;5070926;28;20036;-81
2023/06/11 06:00:23;;;;;;;47.85;28.42;;;;;;;;;;5070608;28;20093;-81
2023/06/11 06:02:50;;;;;;;48.55;31.40;;;;;;;;;;5069849;28;20029;-81
2023/06/11 06:05:16;;;;;;;46.08;28.88;;;;;;;;;;5052207;28;20043;-81
2023/06/11 06:07:42;;;;;;;48.25;29.83;;;;;;;;;;5075361;28;20052;-84
2023/06/11 06:10:08;;;;;;;49.63;28.38;;;;;;;;;;5071020;28;20039;-81
2023/06/11 06:12:34;;;;;;;46.80;30.48;;;;;;;;;;5070458;28;20435;-82
2023/06/11 06:15:00;;;;;;;43.45;25.95;;;;;;;;;;5054175;28;20033;-81
2023/06/11 06:17:27;;;;;;;41.90;26.27;;;;;;;;;;5071040;28;20025;-85
2023/06/11 06:19:53;;;;;;;42.17;25.90;;;;;;;;;;5056068;28;20125;-81
2023/06/11 06:22:19;;;;;;;49.03;28.60;;;;;;;;;;5053901;28;20082;-82
2023/06/11 06:24:45;;;;;;;41.65;25.85;;;;;;;;;;5072346;28;20393;-82
2023/06/11 06:27:11;;;;;;;48.22;27.48;;;;;;;;;;5074352;28;20024;-82
2023/06/11 06:29:38;;;;;;;42.50;26.50;;;;;;;;;;5056341;28;20024;-83
2023/06/11 06:32:08;;;;;;;40.75;25.23;;;;;;;;;;5069597;28;20143;-82
2023/06/11 06:34:34;;;;;;;40.00;24.10;;;;;;;;;;5065370;28;20485;-79
2023/06/11 06:37:00;;;;;;;37.58;24.85;;;;;;;;;;5065874;28;20032;-83
2023/06/11 06:39:27;;;;;;;40.75;25.30;;;;;;;;;;5057727;28;20056;-83
2023/06/11 06:41:53;;;;;;;38.45;24.77;;;;;;;;;;5051256;28;20075;-82
2023/06/11 06:44:20;;;;;;;38.33;23.25;;;;;;;;;;5053148;28;20025;-82
2023/06/11 06:46:46;;;;;;;33.47;22.38;;;;;;;;;;5047305;28;20040;-81
2023/06/11 06:49:12;;;;;;;35.65;23.35;;;;;;;;;;5047192;28;20056;-82
2023/06/11 06:51:38;;;;;;;36.75;22.23;;;;;;;;;;5049333;28;20039;-82
2023/06/11 06:54:05;;;;;;;41.25;22.80;;;;;;;;;;5050551;28;20576;-79
2023/06/11 06:56:31;;;;;;;36.33;23.50;;;;;;;;;;5051472;28;20143;-80
2023/06/11 06:58:57;;;;;;;37.25;24.65;;;;;;;;;;5053377;28;20115;-81
2023/06/11 07:01:23;;;;;;;37.95;24.30;;;;;;;;;;5049812;28;20152;-81
2023/06/11 07:03:49;;;;;;;40.00;22.27;;;;;;;;;;5068041;28;20033;-86
2023/06/11 07:06:15;;;;;;;38.17;22.27;;;;;;;;;;5053853;28;20052;-82
2023/06/11 07:08:41;;;;;;;38.33;23.55;;;;;;;;;;5049373;28;20604;-78
2023/06/11 07:11:07;;;;;;;36.97;21.73;;;;;;;;;;5051539;28;20021;-81
2023/06/11 07:13:35;;;;;;;39.50;22.17;;;;;;;;;;5050357;28;20854;-81
2023/06/11 07:16:01;;;;;;;34.03;21.58;;;;;;;;;;5064623;28;20485;-80
2023/06/11 07:18:28;;;;;;;42.08;24.65;;;;;;;;;;5049705;28;20485;-83
2023/06/11 07:20:54;;;;;;;35.05;23.45;;;;;;;;;;5050089;28;20146;-81
2023/06/11 07:23:20;;;;;;;38.63;24.10;;;;;;;;;;5064813;28;20029;-82
2023/06/11 07:25:48;;;;;;;37.08;22.50;;;;;;;;;;5047798;28;20021;-86
2023/06/11 07:28:16;;;;;;;31.52;21.85;;;;;;;;;;5046178;28;20123;-81
2023/06/11 07:30:42;;;;;;;34.22;22.33;;;;;;;;;;5050391;28;20025;-82
2023/06/11 07:33:08;;;;;;;32.13;23.95;;;;;;;;;;5060650;28;20029;-87
2023/06/11 07:35:34;;;;;;;34.60;20.75;;;;;;;;;;5065980;28;20028;-82
2023/06/11 07:38:01;;;;;;;32.35;17.85;;;;;;;;;;5066324;28;20440;-87
2023/06/11 07:40:27;;;;;;;30.17;17.85;;;;;;;;;;5053597;28;20028;-86
2023/06/11 07:42:53;;;;;;;26.17;17.10;;;;;;;;;;5069631;28;20078;-86
2023/06/11 07:45:20;;;;;;;28.42;16.17;;;;;;;;;;5058748;28;20028;-86
2023/06/11 07:47:46;;;;;;;30.08;17.50;;;;;;;;;;5052579;28;20115;-86
2023/06/11 07:50:12;;;;;;;21.75;14.30;;;;;;;;;;5066955;28;20032;-88
2023/06/11 07:52:39;;;;;;;21.33;13.88;;;;;;;;;;5065523;28;20020;-85
2023/06/11 07:55:05;;;;;;;12.82;9.27;;;;;;;;;;5063197;28;20029;-86
2023/06/11 07:57:32;;;;;;;8.00;6.00;;;;;;;;;;5068605;28;20085;-86
2023/06/11 07:59:58;;;;;;;11.30;8.00;;;;;;;;;;5048961;28;20123;-84
2023/06/11 08:02:24;;;;;;;10.50;7.47;;;;;;;;;;5064783;28;20043;-85
2023/06/11 08:04:50;;;;;;;9.45;6.80;;;;;;;;;;5068375;28;20025;-86
2023/06/11 08:07:16;;;;;;;8.30;5.80;;;;;;;;;;5071112;28;20032;-84
2023/06/11 08:09:43;;;;;;;9.70;5.78;;;;;;;;;;5065129;28;20040;-86
2023/06/11 08:12:11;;;;;;;9.07;7.20;;;;;;;;;;5068312;28;20029;-86
2023/06/11 08:14:37;;;;;;;8.73;5.82;;;;;;;;;;5071334;28;20390;-86
2023/06/11 08:17:03;;;;;;;7.95;5.53;;;;;;;;;;5071213;28;20533;-85
2023/06/11 08:19:30;;;;;;;6.00;4.80;;;;;;;;;;5051980;28;21296;-90
2023/06/11 08:21:56;;;;;;;7.40;6.22;;;;;;;;;;5050248;28;21888;-85
2023/06/11 08:24:22;;;;;;;5.55;4.43;;;;;;;;;;5064596;28;20028;-83
2023/06/11 08:26:49;;;;;;;5.85;4.68;;;;;;;;;;5048709;28;20025;-82
2023/06/11 08:29:16;;;;;;;6.10;4.70;;;;;;;;;;5062667;28;20086;-83
2023/06/11 08:31:42;;;;;;;8.98;4.28;;;;;;;;;;5048941;28;20098;-82
2023/06/11 08:34:08;;;;;;;5.57;4.40;;;;;;;;;;5065112;28;20040;-83
2023/06/11 08:36:34;;;;;;;7.03;4.35;;;;;;;;;;5062010;28;20025;-82
2023/06/11 08:39:01;;;;;;;5.05;4.07;;;;;;;;;;5065747;28;20134;-82
2023/06/11 08:41:31;;;;;;;4.68;4.00;;;;;;;;;;5065731;28;20115;-82
2023/06/11 08:43:58;;;;;;;6.55;4.45;;;;;;;;;;5044226;28;20694;-82
2023/06/11 08:46:24;;;;;;;4.75;3.78;;;;;;;;;;5064615;28;20143;-83
2023/06/11 08:48:58;;;;;;;4.32;3.47;;;;;;;;;;5050865;28;20400;-82
2023/06/11 08:51:24;;;;;;;5.30;3.22;;;;;;;;;;5045343;28;20831;-82
2023/06/11 08:53:50;;;;;;;4.10;3.40;;;;;;;;;;5046065;28;20043;-82
2023/06/11 08:56:16;;;;;;;4.00;3.40;;;;;;;;;;5066007;28;20047;-82
2023/06/11 08:58:43;;;;;;;3.70;2.90;;;;;;;;;;5042584;28;20025;-82
2023/06/11 09:01:10;;;;;;;3.72;2.90;;;;;;;;;;5065937;28;20032;-82
2023/06/11 09:03:36;;;;;;;5.15;3.53;;;;;;;;;;5049298;28;20056;-82
2023/06/11 09:06:02;;;;;;;3.28;2.60;;;;;;;;;;5045312;28;20059;-82
2023/06/11 09:08:29;;;;;;;3.92;2.60;;;;;;;;;;5046403;28;20702;-82
2023/06/11 09:10:55;;;;;;;3.13;2.80;;;;;;;;;;5043757;28;20518;-83
2023/06/11 09:13:25;;;;;;;3.78;2.38;;;;;;;;;;5063046;28;20039;-82
2023/06/11 09:15:55;;;;;;;2.60;2.30;;;;;;;;;;5068378;28;20721;-81
2023/06/11 09:18:28;;;;;;;2.15;1.95;;;;;;;;;;5052251;28;20036;-82
2023/06/11 09:21:01;;;;;;;2.55;2.35;;;;;;;;;;5062949;28;20033;-82
2023/06/11 09:23:28;;;;;;;3.50;2.45;;;;;;;;;;5045798;28;20123;-82
2023/06/11 09:25:55;;;;;;;5.43;2.33;;;;;;;;;;5047100;28;20031;-82
2023/06/11 09:28:22;;;;;;;2.70;2.30;;;;;;;;;;5044365;28;20686;-82
2023/06/11 09:30:57;;;;;;;3.00;2.70;;;;;;;;;;5061582;28;20020;-82
2023/06/11 09:33:23;;;;;;;4.68;2.90;;;;;;;;;;5066013;28;20443;-81
2023/06/11 09:35:50;;;;;;;2.70;2.30;;;;;;;;;;5061183;28;20127;-81
2023/06/11 09:38:17;;;;;;;4.28;2.13;;;;;;;;;;5046140;28;20032;-82
2023/06/11 09:40:50;;;;;;;4.63;2.13;;;;;;;;;;5063575;28;20027;-82
2023/06/11 09:43:21;;;;;;;3.60;2.40;;;;;;;;;;5045799;28;20070;-82
2023/06/11 09:45:52;;;;;;;2.20;2.00;;;;;;;;;;5062717;28;20412;-82
2023/06/11 09:48:18;;;;;;;2.50;2.30;;;;;;;;;;5062380;28;20512;-82
2023/06/11 09:50:45;;;;;;;2.50;2.10;;;;;;;;;;5064005;28;20056;-82
2023/06/11 09:53:12;;;;;;;2.92;2.33;;;;;;;;;;5062499;28;20107;-82
2023/06/11 09:55:39;;;;;;;2.95;2.15;;;;;;;;;;5047739;28;20392;-81
2023/06/11 09:58:06;;;;;;;2.30;2.10;;;;;;;;;;5059514;28;20133;-82
2023/06/11 10:00:32;;;;;;;4.43;2.30;;;;;;;;;;5064791;28;20033;-82
2023/06/11 10:02:58;;;;;;;2.55;2.33;;;;;;;;;;5060760;28;20070;-82
2023/06/11 10:05:24;;;;;;;2.55;2.10;;;;;;;;;;5047716;28;20025;-81
2023/06/11 10:07:59;;;;;;;2.65;1.80;;;;;;;;;;5063363;28;20020;-82
2023/06/11 10:10:26;;;;;;;2.35;1.92;;;;;;;;;;5058710;28;20036;-82
2023/06/11 10:12:54;;;;;;;2.03;1.83;;;;;;;;;;5063669;28;20605;-82
2023/06/11 10:15:24;;;;;;;3.95;2.00;;;;;;;;;;5062500;28;20055;-82
2023/06/11 10:17:52;;;;;;;2.20;1.88;;;;;;;;;;5045171;28;20035;-82
2023/06/11 10:20:25;;;;;;;2.25;1.70;;;;;;;;;;5045447;28;20040;-81
2023/06/11 10:23:01;;;;;;;1.60;1.50;;;;;;;;;;5066341;28;20024;-82
2023/06/11 10:25:32;;;;;;;1.77;1.67;;;;;;;;;;5067266;28;20372;-83
2023/06/11 10:27:58;;;;;;;1.98;1.77;;;;;;;;;;5066349;28;20021;-82
2023/06/11 10:30:25;;;;;;;2.03;1.50;;;;;;;;;;5068324;28;20421;-82
2023/06/11 10:32:53;;;;;;;1.70;1.60;;;;;;;;;;5067224;28;20497;-83
2023/06/11 10:35:24;;;;;;;2.20;2.00;;;;;;;;;;5070193;28;20047;-83
2023/06/11 10:37:50;;;;;;;2.50;1.63;;;;;;;;;;5066832;28;20110;-83
2023/06/11 10:40:16;;;;;;;1.70;1.60;;;;;;;;;;5069004;28;20036;-81
2023/06/11 10:42:43;;;;;;;1.67;1.58;;;;;;;;;;5066387;28;20024;-82
2023/06/11 10:45:10;;;;;;;2.17;1.73;;;;;;;;;;5067205;28;20085;-83
2023/06/11 10:47:45;;;;;;;2.00;1.80;;;;;;;;;;5051652;28;20027;-82
2023/06/11 10:50:12;;;;;;;1.60;1.50;;;;;;;;;;5050953;28;20042;-85
2023/06/11 10:53:06;;;;;;;3.50;1.80;;;;;;;;;;5076750;28;20032;-83
2023/06/11 10:55:34;;;;;;;1.75;1.60;;;;;;;;;;5071823;28;20127;-84
2023/06/11 10:58:01;;;;;;;1.70;1.60;;;;;;;;;;5072565;28;20044;-84
2023/06/11 11:00:32;;;;;;;2.05;1.70;;;;;;;;;;5072441;28;20025;-83
2023/06/11 11:02:58;;;;;;;2.58;1.67;;;;;;;;;;5071280;28;20040;-84
2023/06/11 11:05:28;;;;;;;2.05;1.77;;;;;;;;;;5067300;28;20094;-83
2023/06/11 11:07:55;;;;;;;2.28;1.80;;;;;;;;;;5052863;28;20508;-85
2023/06/11 11:10:26;;;;;;;2.22;1.73;;;;;;;;;;5077366;28;20020;-83
2023/06/11 11:12:53;;;;;;;3.55;1.80;;;;;;;;;;5077732;28;20017;-84
2023/06/11 11:15:19;;;;;;;2.15;1.70;;;;;;;;;;5071555;28;20713;-84
2023/06/11 11:17:46;;;;;;;2.38;2.10;;;;;;;;;;5072894;28;20032;-84
2023/06/11 11:20:19;;;;;;;2.20;2.00;;;;;;;;;;5068332;28;20025;-87
2023/06/11 11:22:54;;;;;;;2.95;2.00;;;;;;;;;;5065406;28;22196;-87
2023/06/11 11:25:29;;;;;;;2.40;2.00;;;;;;;;;;5068482;28;20107;-82
2023/06/11 11:27:56;;;;;;;1.90;1.75;;;;;;;;;;5051571;28;20119;-82
2023/06/11 11:30:24;;;;;;;2.75;2.00;;;;;;;;;;5074032;28;20064;-82
2023/06/11 11:32:52;;;;;;;1.77;1.60;;;;;;;;;;5069249;28;20051;-82
2023/06/11 11:35:18;;;;;;;2.03;1.80;;;;;;;;;;5069454;28;20028;-82
2023/06/11 11:37:50;;;;;;;2.88;1.80;;;;;;;;;;5069206;28;20113;-82
2023/06/11 11:40:20;;;;;;;3.58;2.70;;;;;;;;;;5071059;28;20516;-82
2023/06/11 11:42:46;;;;;;;2.55;2.25;;;;;;;;;;5069510;28;20523;-82
2023/06/11 11:45:15;;;;;;;3.05;2.20;;;;;;;;;;5071478;28;20020;-82
2023/06/11 11:47:42;;;;;;;2.00;1.80;;;;;;;;;;5070754;28;20031;-82
2023/06/11 11:50:17;;;;;;;2.33;2.13;;;;;;;;;;5054739;28;20024;-82
2023/06/11 11:52:45;;;;;;;2.22;2.03;;;;;;;;;;5055876;28;20761;-82
2023/06/11 11:55:11;;;;;;;2.38;1.95;;;;;;;;;;5070671;28;20516;-82
2023/06/11 11:57:42;;;;;;;2.20;2.00;;;;;;;;;;5070782;28;20036;-82
2023/06/11 12:00:09;;;;;;;2.38;2.15;;;;;;;;;;5070979;28;20028;-82
2023/06/11 12:02:42;;;;;;;2.35;1.90;;;;;;;;;;5071905;28;20032;-82
2023/06/11 12:05:13;;;;;;;2.50;2.10;;;;;;;;;;5066572;28;20059;-82
2023/06/11 12:07:39;;;;;;;3.00;1.90;;;;;;;;;;5069123;28;20107;-82
2023/06/11 12:10:05;;;;;;;2.33;2.00;;;;;;;;;;5049737;28;20044;-82
2023/06/11 12:12:31;;;;;;;3.55;1.90;;;;;;;;;;5053706;28;20016;-83
2023/06/11 12:14:57;;;;;;;3.47;2.10;;;;;;;;;;5048497;28;20478;-82
2023/06/11 12:17:24;;;;;;;2.72;1.90;;;;;;;;;;5069229;28;20028;-82
2023/06/11 12:19:50;;;;;;;3.05;2.00;;;;;;;;;;5052978;28;20038;-82
2023/06/11 12:22:16;;;;;;;2.55;2.30;;;;;;;;;;5053359;28;20032;-82
2023/06/11 12:24:43;;;;;;;2.97;2.30;;;;;;;;;;5053177;28;20036;-82
2023/06/11 12:27:10;;;;;;;2.72;2.30;;;;;;;;;;5071105;28;20030;-82
2023/06/11 12:29:36;;;;;;;2.22;2.00;;;;;;;;;;5069501;28;20047;-82
2023/06/11 12:32:02;;;;;;;2.97;1.92;;;;;;;;;;5066862;28;20397;-82
2023/06/11 12:34:28;;;;;;;2.88;2.08;;;;;;;;;;5048562;28;20477;-83
2023/06/11 12:36:55;;;;;;;2.47;2.20;;;;;;;;;;5069494;28;20028;-82
2023/06/11 12:39:21;;;;;;;2.67;2.10;;;;;;;;;;5069146;28;20028;-82
2023/06/11 12:41:48;;;;;;;3.05;2.13;;;;;;;;;;5050372;28;20024;-82
2023/06/11 12:44:15;;;;;;;3.47;2.15;;;;;;;;;;5068655;28;20130;-82
2023/06/11 12:46:41;;;;;;;2.30;1.80;;;;;;;;;;5062980;28;20055;-84
2023/06/11 12:49:08;;;;;;;7.53;2.50;;;;;;;;;;5050048;28;20033;-85
2023/06/11 12:51:34;;;;;;;2.15;1.95;;;;;;;;;;5063734;28;20033;-77
2023/06/11 12:54:01;;;;;;;4.50;2.00;;;;;;;;;;5053826;28;20032;-81
2023/06/11 12:56:28;;;;;;;2.75;2.00;;;;;;;;;;5066503;28;20063;-86
2023/06/11 12:58:54;;;;;;;2.20;2.00;;;;;;;;;;5051079;28;20025;-82
2023/06/11 13:01:20;;;;;;;2.63;2.10;;;;;;;;;;5048162;28;20032;-83
2023/06/11 13:03:46;;;;;;;2.15;1.80;;;;;;;;;;5065950;28;20034;-84
2023/06/11 13:06:13;;;;;;;3.13;2.13;;;;;;;;;;5048501;28;20075;-83
2023/06/11 13:08:39;;;;;;;2.42;1.98;;;;;;;;;;5049274;28;20025;-83
2023/06/11 13:11:05;;;;;;;1.88;1.70;;;;;;;;;;5067456;28;20020;-84
2023/06/11 13:13:31;;;;;;;2.05;1.88;;;;;;;;;;5051727;28;20456;-82
2023/06/11 13:15:57;;;;;;;2.22;2.00;;;;;;;;;;5062431;28;20489;-81
2023/06/11 13:18:24;;;;;;;1.80;1.70;;;;;;;;;;5050418;28;20039;-83
2023/06/11 13:20:50;;;;;;;1.80;1.70;;;;;;;;;;5067903;28;20092;-81
2023/06/11 13:23:20;;;;;;;1.80;1.70;;;;;;;;;;5067128;28;20695;-81
2023/06/11 13:25:46;;;;;;;1.70;1.60;;;;;;;;;;5063893;28;20063;-85
2023/06/11 13:28:12;;;;;;;2.05;1.70;;;;;;;;;;5052858;28;20044;-83
2023/06/11 13:30:39;;;;;;;2.00;1.80;;;;;;;;;;5051788;28;20120;-80
2023/06/11 13:33:05;;;;;;;1.95;1.80;;;;;;;;;;5067300;28;20050;-82
2023/06/11 13:35:31;;;;;;;2.22;1.88;;;;;;;;;;5067036;28;20025;-82
2023/06/11 13:37:58;;;;;;;1.58;1.48;;;;;;;;;;5049639;28;20024;-82
2023/06/11 13:40:24;;;;;;;1.90;1.75;;;;;;;;;;5065099;28;20032;-81
2023/06/11 13:42:50;;;;;;;2.83;1.70;;;;;;;;;;5065683;28;20020;-81
2023/06/11 13:45:17;;;;;;;1.50;1.40;;;;;;;;;;5047554;28;20047;-81
2023/06/11 13:47:43;;;;;;;1.80;1.60;;;;;;;;;;5064372;28;20020;-78
2023/06/11 13:50:09;;;;;;;1.70;1.60;;;;;;;;;;5044797;28;20032;-80
2023/06/11 13:52:35;;;;;;;1.77;1.63;;;;;;;;;;5059993;28;20048;-80
2023/06/11 13:55:02;;;;;;;2.17;1.60;;;;;;;;;;5045871;28;20021;-78
2023/06/11 13:57:30;;;;;;;2.58;1.75;;;;;;;;;;5063500;28;20024;-79
2023/06/11 13:59:57;;;;;;;3.53;2.20;;;;;;;;;;5052241;28;20032;-80
2023/06/11 14:02:23;;;;;;;2.25;1.70;;;;;;;;;;5048633;28;20099;-80
2023/06/11 14:04:52;;;;;;;2.58;1.77;;;;;;;;;;5064197;28;20082;-79
2023/06/11 14:07:19;;;;;;;2.10;1.55;;;;;;;;;;5050771;28;20024;-77
2023/06/11 14:09:46;;;;;;;2.97;1.73;;;;;;;;;;5052559;28;20079;-83
2023/06/11 14:12:12;;;;;;;1.58;1.48;;;;;;;;;;5066111;28;20135;-81
2023/06/11 14:14:38;;;;;;;1.55;1.45;;;;;;;;;;5070966;28;20032;-84
2023/06/11 14:17:05;;;;;;;1.60;1.50;;;;;;;;;;5066883;28;20021;-81
2023/06/11 14:19:32;;;;;;;2.03;1.70;;;;;;;;;;5072129;28;20029;-80
2023/06/11 14:21:58;;;;;;;1.92;1.73;;;;;;;;;;5068539;28;20626;-80
2023/06/11 14:24:24;;;;;;;1.98;1.77;;;;;;;;;;5054171;28;20090;-79
2023/06/11 14:26:52;;;;;;;1.98;1.77;;;;;;;;;;5051814;28;20572;-78
2023/06/11 14:29:18;;;;;;;2.25;1.90;;;;;;;;;;5070060;28;20032;-79